Time;durP1;ratioP1;P1;durP2;ratioP2;P2;SDS_P1;SDS_P2;PMS_P1;PMS_P2;Temp;Humidity;BMP_temperature;BMP_pressure;BME280_temperature;BME280_humidity;BME280_pressure;Samples;Min_cycle;Max_cycle;Signal;HPM_P1;HPM_P2
2021/01/13 00:02:54;;;;;;;20.52;9.20;;;;;;;-5.90;53.91;99337.78;10464320;28;20056;-49
2021/01/13 00:07:57;;;;;;;17.98;6.78;;;;;;;-5.82;53.70;99336.72;10488659;28;20501;-50
2021/01/13 00:13:02;;;;;;;28.73;9.60;;;;;;;-5.79;53.27;99325.56;10484216;28;20051;-49
2021/01/13 00:18:04;;;;;;;20.23;8.38;;;;;;;-5.73;52.91;99322.84;10463723;28;20076;-50
2021/01/13 00:23:06;;;;;;;11.93;5.45;;;;;;;-5.73;53.08;99325.41;10463777;28;20049;-51
2021/01/13 00:28:08;;;;;;;28.17;8.80;;;;;;;-5.83;53.38;99339.31;10464341;28;20108;-50
2021/01/13 00:33:10;;;;;;;20.53;7.47;;;;;;;-5.81;53.42;99340.13;10463864;28;20127;-50
2021/01/13 00:38:11;;;;;;;21.35;8.73;;;;;;;-5.97;53.77;99346.50;10463001;28;20049;-50
2021/01/13 00:43:14;;;;;;;30.73;9.68;;;;;;;-5.93;54.16;99335.34;10461572;28;20486;-50
2021/01/13 00:48:16;;;;;;;20.17;7.70;;;;;;;-5.96;53.86;99335.41;10482364;28;20076;-57
2021/01/13 00:53:17;;;;;;;25.42;8.68;;;;;;;-5.80;53.84;99332.41;10466973;28;20063;-49
2021/01/13 00:58:22;;;;;;;22.33;6.28;;;;;;;-5.84;53.63;99328.25;10462625;28;20134;-50
2021/01/13 01:03:23;;;;;;;17.90;6.47;;;;;;;-5.93;53.72;99335.34;10462105;28;20060;-49
2021/01/13 01:08:25;;;;;;;21.90;7.80;;;;;;;-5.95;53.99;99339.66;10490110;28;20064;-50
2021/01/13 01:13:28;;;;;;;18.15;6.88;;;;;;;-5.92;53.75;99332.69;10480536;28;20045;-51
2021/01/13 01:18:29;;;;;;;24.83;8.88;;;;;;;-5.91;53.38;99343.78;10461882;28;20049;-50
2021/01/13 01:23:31;;;;;;;20.88;8.98;;;;;;;-5.89;53.13;99327.50;10460270;28;20053;-50
2021/01/13 01:28:34;;;;;;;29.33;11.95;;;;;;;-5.82;52.95;99323.06;10460996;28;20055;-49
2021/01/13 01:33:35;;;;;;;18.43;6.03;;;;;;;-5.90;53.05;99330.13;10460992;28;20056;-49
2021/01/13 01:38:37;;;;;;;33.10;11.68;;;;;;;-5.97;53.12;99318.34;10461240;28;20493;-50
2021/01/13 01:43:44;;;;;;;23.15;9.85;;;;;;;-6.07;53.49;99316.00;10460569;28;20564;-50
2021/01/13 01:48:51;;;;;;;22.25;8.57;;;;;;;-6.02;53.18;99311.63;10460690;28;20478;-50
2021/01/13 01:54:23;;;;;;;20.98;8.07;;;;;;;-5.93;53.16;99308.03;10460580;28;20076;-48
2021/01/13 01:59:35;;;;;;;15.93;7.13;;;;;;;-5.95;53.18;99308.94;10460174;28;20083;-49
2021/01/13 02:04:42;;;;;;;29.20;10.18;;;;;;;-6.03;52.92;99304.00;10419270;28;20065;-50
2021/01/13 02:09:44;;;;;;;23.27;8.35;;;;;;;-6.03;53.18;99288.66;10495930;28;20049;-51
2021/01/13 02:14:47;;;;;;;21.52;8.23;;;;;;;-5.88;52.69;99293.38;10466937;28;20057;-50
2021/01/13 02:20:12;;;;;;;23.15;9.23;;;;;;;-5.98;53.00;99289.38;10458379;28;20087;-48
2021/01/13 02:25:51;;;;;;;23.25;11.02;;;;;;;-5.88;52.49;99288.25;10459630;28;20136;-50
2021/01/13 02:31:22;;;;;;;23.10;8.25;;;;;;;-5.96;53.12;99284.22;10426392;28;20049;-50
2021/01/13 02:36:44;;;;;;;24.77;10.13;;;;;;;-6.08;52.97;99275.97;10458467;28;20421;-48
2021/01/13 02:41:46;;;;;;;24.75;8.70;;;;;;;-5.91;52.43;99279.78;10499051;28;20040;-52
2021/01/13 02:47:08;;;;;;;18.52;8.23;;;;;;;-5.85;52.44;99279.63;10503216;28;20053;-51
2021/01/13 02:52:23;;;;;;;28.10;10.07;;;;;;;-5.84;52.39;99276.22;10500231;28;20055;-48
2021/01/13 02:57:28;;;;;;;18.73;7.22;;;;;;;-5.88;51.90;99288.25;10499441;28;20075;-49
2021/01/13 03:02:36;;;;;;;25.73;9.20;;;;;;;-6.04;52.58;99267.31;10468346;28;20051;-49
2021/01/13 03:07:39;;;;;;;16.20;5.97;;;;;;;-6.02;52.63;99274.97;10457716;28;20044;-48
2021/01/13 03:12:41;;;;;;;21.48;8.10;;;;;;;-6.15;53.04;99259.09;10478612;28;20049;-50
2021/01/13 03:17:59;;;;;;;21.93;9.63;;;;;;;-6.05;52.71;99270.78;10457031;28;20056;-49
2021/01/13 03:23:09;;;;;;;19.05;6.93;;;;;;;-5.91;52.63;99279.78;10457586;28;20037;-48
2021/01/13 03:28:15;;;;;;;13.52;5.32;;;;;;;-6.00;52.49;99283.47;10456865;28;20044;-48
2021/01/13 03:34:01;;;;;;;22.10;9.15;;;;;;;-6.18;52.71;99284.75;10456120;28;20049;-50
2021/01/13 03:39:05;;;;;;;24.08;7.00;;;;;;;-6.17;52.72;99295.81;10457246;28;20045;-48
2021/01/13 03:44:09;;;;;;;8.32;2.72;;;;;;;-6.31;52.73;99308.91;10456048;28;20059;-50
2021/01/13 03:49:17;;;;;;;19.33;7.20;;;;;;;-6.46;53.17;99293.91;10455918;28;20448;-49
2021/01/13 03:54:24;;;;;;;24.65;9.52;;;;;;;-6.50;53.36;99288.88;10456594;28;20052;-49
2021/01/13 03:59:40;;;;;;;17.45;7.30;;;;;;;-6.41;53.12;99302.34;10455632;28;20170;-49
2021/01/13 04:04:49;;;;;;;19.17;8.25;;;;;;;-6.47;52.64;99297.34;10456069;28;20398;-49
2021/01/13 04:09:56;;;;;;;17.13;5.75;;;;;;;-6.42;52.66;99290.44;10496224;28;20040;-48
2021/01/13 04:14:58;;;;;;;17.88;6.70;;;;;;;-6.40;52.88;99289.53;10456317;28;20053;-48
2021/01/13 04:20:01;;;;;;;10.73;3.35;;;;;;;-6.37;52.61;99309.06;10452131;28;20048;-52
2021/01/13 04:25:05;;;;;;;20.88;7.57;;;;;;;-6.42;52.86;99301.50;10461155;28;20359;-48
2021/01/13 04:30:08;;;;;;;19.90;7.18;;;;;;;-6.39;52.38;99290.38;10454168;28;20564;-50
2021/01/13 04:35:12;;;;;;;14.38;6.60;;;;;;;-6.26;52.61;99286.63;10453235;28;20044;-49
2021/01/13 04:40:30;;;;;;;29.20;11.45;;;;;;;-6.10;52.42;99282.00;10456049;28;20553;-49
2021/01/13 04:45:37;;;;;;;20.35;7.82;;;;;;;-5.99;51.76;99279.19;10462766;28;20041;-48
2021/01/13 04:50:42;;;;;;;23.58;8.25;;;;;;;-6.07;51.48;99287.88;10464687;28;20378;-49
2021/01/13 04:55:46;;;;;;;20.00;8.85;;;;;;;-6.23;51.64;99272.94;10464580;28;20076;-49
2021/01/13 05:01:27;;;;;;;19.45;6.82;;;;;;;-6.29;51.58;99279.88;10463799;28;20065;-50
2021/01/13 05:06:49;;;;;;;31.30;10.40;;;;;;;-6.26;51.83;99287.47;10460549;28;20148;-48
2021/01/13 05:11:51;;;;;;;22.55;8.00;;;;;;;-6.32;51.92;99290.19;10465259;28;20144;-50
2021/01/13 05:17:04;;;;;;;25.13;9.47;;;;;;;-6.26;51.72;99276.41;10463431;28;20478;-48
2021/01/13 05:22:12;;;;;;;26.85;10.68;;;;;;;-6.35;51.47;99297.91;10463382;28;20134;-49
2021/01/13 05:27:42;;;;;;;18.52;6.82;;;;;;;-6.35;51.19;99312.44;10463072;28;20469;-48
2021/01/13 05:32:43;;;;;;;29.52;10.38;;;;;;;-6.44;51.83;99315.19;10463670;28;20052;-49
2021/01/13 05:37:54;;;;;;;20.23;8.25;;;;;;;-6.32;51.62;99307.25;10462400;28;20052;-48
2021/01/13 05:43:00;;;;;;;20.50;8.05;;;;;;;-6.30;51.37;99311.44;10462827;28;20502;-49
2021/01/13 05:48:02;;;;;;;21.60;8.45;;;;;;;-6.27;51.64;99323.34;10462715;28;20045;-50
2021/01/13 05:53:06;;;;;;;26.90;9.85;;;;;;;-6.26;51.45;99327.56;10462226;28;20098;-48
2021/01/13 05:58:08;;;;;;;22.00;7.30;;;;;;;-6.33;51.76;99328.59;10461513;28;20052;-49
2021/01/13 06:03:12;;;;;;;23.70;7.80;;;;;;;-6.41;52.30;99335.59;10461632;28;20155;-50
2021/01/13 06:08:15;;;;;;;26.35;8.75;;;;;;;-6.35;52.05;99338.84;10460151;28;20068;-49
2021/01/13 06:13:19;;;;;;;25.08;9.25;;;;;;;-6.35;52.36;99348.25;10461369;28;20488;-49
2021/01/13 06:18:23;;;;;;;17.10;8.15;;;;;;;-6.45;52.24;99364.66;10460722;28;20041;-49
2021/01/13 06:23:28;;;;;;;29.63;8.40;;;;;;;-6.47;52.60;99361.28;10460417;28;20044;-49
2021/01/13 06:28:57;;;;;;;12.50;4.93;;;;;;;-6.53;52.32;99360.53;10460357;28;20493;-49
2021/01/13 06:34:23;;;;;;;20.70;7.90;;;;;;;-6.53;52.50;99386.09;10461995;28;20045;-49
2021/01/13 06:39:27;;;;;;;10.00;3.75;;;;;;;-6.44;52.26;99389.34;10460570;28;20052;-48
2021/01/13 06:44:43;;;;;;;18.13;7.80;;;;;;;-6.44;52.42;99386.78;10459892;28;20049;-50
2021/01/13 06:49:50;;;;;;;14.48;5.53;;;;;;;-6.40;52.46;99385.84;10460196;28;20382;-48
2021/01/13 06:54:54;;;;;;;16.95;7.88;;;;;;;-6.35;52.20;99390.00;10460141;28;20106;-50
2021/01/13 06:59:57;;;;;;;8.90;3.58;;;;;;;-6.26;52.21;99386.41;10459566;28;20084;-53
2021/01/13 07:04:58;;;;;;;21.88;7.57;;;;;;;-6.27;52.17;99384.72;10458598;28;20152;-48
2021/01/13 07:10:01;;;;;;;22.13;10.55;;;;;;;-6.10;51.94;99379.22;10460054;28;20048;-49
2021/01/13 07:15:06;;;;;;;21.57;8.13;;;;;;;-5.95;51.79;99386.56;10459084;28;20055;-50
2021/01/13 07:20:09;;;;;;;22.23;8.27;;;;;;;-5.75;51.43;99386.06;10459460;28;20048;-49
2021/01/13 07:25:13;;;;;;;12.57;5.97;;;;;;;-5.65;51.64;99377.28;10459503;28;20053;-48
2021/01/13 07:30:18;;;;;;;23.52;9.00;;;;;;;-5.61;51.67;99378.03;10458751;28;20143;-50
2021/01/13 07:35:29;;;;;;;22.17;7.75;;;;;;;-5.55;51.32;99368.47;10458826;28;20049;-49
2021/01/13 07:40:36;;;;;;;18.88;6.95;;;;;;;-5.57;51.01;99374.53;10459149;28;20049;-50
2021/01/13 07:45:43;;;;;;;19.48;7.93;;;;;;;-5.61;51.41;99362.66;10457728;28;20048;-50
2021/01/13 07:50:46;;;;;;;22.50;8.15;;;;;;;-5.55;51.36;99376.16;10457793;28;20060;-49
2021/01/13 07:56:01;;;;;;;18.80;7.88;;;;;;;-5.58;51.36;99386.47;10457171;28;20390;-50
2021/01/13 08:02:03;;;;;;;19.48;7.95;;;;;;;-5.65;51.68;99379.84;10457930;28;20057;-48
2021/01/13 08:07:15;;;;;;;23.58;8.82;;;;;;;-5.60;51.82;99370.31;10458181;28;20064;-49
2021/01/13 08:13:14;;;;;;;22.85;11.02;;;;;;;-5.53;51.54;99360.75;10458362;28;20053;-49
2021/01/13 08:18:55;;;;;;;16.77;7.20;;;;;;;-5.55;51.56;99367.63;10463338;28;20056;-50
2021/01/13 08:24:03;;;;;;;22.50;9.15;;;;;;;-5.70;51.60;99370.56;10469909;28;20048;-57
2021/01/13 08:29:06;;;;;;;20.77;7.95;;;;;;;-5.68;51.83;99367.09;10466945;28;20056;-49
2021/01/13 08:34:10;;;;;;;21.48;8.48;;;;;;;-5.55;51.89;99372.75;10464755;28;20068;-49
2021/01/13 08:39:13;;;;;;;25.95;9.50;;;;;;;-5.54;51.49;99369.34;10465301;28;20060;-48
2021/01/13 08:44:17;;;;;;;17.85;7.55;;;;;;;-5.58;51.51;99371.13;10464705;28;20056;-50
2021/01/13 08:49:24;;;;;;;18.52;6.90;;;;;;;-5.36;51.40;99373.13;10464497;28;20049;-48
2021/01/13 08:54:27;;;;;;;19.67;9.30;;;;;;;-5.19;50.63;99370.97;10464927;28;20394;-50
2021/01/13 08:59:36;;;;;;;20.63;7.43;;;;;;;-5.16;49.77;99368.34;10464389;28;20061;-51
2021/01/13 09:05:00;;;;;;;10.30;4.93;;;;;;;-5.15;50.45;99359.75;10464931;28;20063;-48
2021/01/13 09:10:04;;;;;;;20.17;7.50;;;;;;;-5.36;50.21;99348.38;10464926;28;20087;-50
2021/01/13 09:15:22;;;;;;;20.33;8.88;;;;;;;-5.46;50.53;99353.75;10463601;28;20067;-50
2021/01/13 09:20:29;;;;;;;22.45;8.93;;;;;;;-5.38;50.69;99344.16;10463169;28;20052;-48
2021/01/13 09:25:33;;;;;;;22.83;8.02;;;;;;;-5.44;50.52;99349.44;10462027;28;20140;-49
2021/01/13 09:30:41;;;;;;;22.60;9.82;;;;;;;-5.35;50.78;99329.56;10462082;28;20456;-48
2021/01/13 09:35:45;;;;;;;16.98;8.35;;;;;;;-5.16;50.59;99322.22;10462427;28;20436;-49
2021/01/13 09:40:59;;;;;;;22.55;9.95;;;;;;;-4.88;50.13;99313.75;10462500;28;20053;-50
2021/01/13 09:46:05;;;;;;;21.58;8.68;;;;;;;-4.38;49.74;99321.66;10463151;28;20096;-49
2021/01/13 09:51:09;;;;;;;25.35;10.05;;;;;;;-3.88;49.10;99303.00;10463061;28;20052;-49
2021/01/13 09:56:12;;;;;;;20.73;8.25;;;;;;;-3.55;48.62;99311.31;10462191;28;20044;-49
2021/01/13 10:01:16;;;;;;;28.88;11.65;;;;;;;-3.34;48.48;99295.16;10461446;28;20052;-49
2021/01/13 10:06:20;;;;;;;27.75;9.38;;;;;;;-3.38;47.97;99303.03;10461537;28;20481;-49
2021/01/13 10:11:23;;;;;;;;;;;;;;;-3.53;47.98;99287.25;10462234;28;20049;-50
2021/01/13 10:16:27;;;;;;;29.35;11.50;;;;;;;-3.60;47.75;99292.63;10461265;28;19935;-51
2021/01/13 10:21:35;;;;;;;29.73;12.35;;;;;;;-3.86;47.65;99285.81;10461842;28;20394;-48
2021/01/13 10:26:38;;;;;;;31.77;12.55;;;;;;;-4.15;47.82;99289.34;10461296;28;20060;-50
2021/01/13 10:31:42;;;;;;;24.50;11.25;;;;;;;-4.18;48.06;99280.84;10461219;28;20048;-51
2021/01/13 10:36:44;;;;;;;;;;;;;;;-4.20;47.79;99249.22;10460999;28;20056;-50
2021/01/13 10:41:48;;;;;;;24.75;11.32;;;;;;;-4.16;47.66;99249.97;10460366;28;20023;-50
2021/01/13 10:46:57;;;;;;;27.42;10.50;;;;;;;-4.26;47.53;99241.72;10461534;28;20369;-50
2021/01/13 10:52:01;;;;;;;23.13;6.43;;;;;;;-4.52;47.80;99241.75;10460752;28;20155;-50
2021/01/13 10:57:05;;;;;;;22.55;9.90;;;;;;;-4.70;48.01;99226.03;10460514;28;20136;-49
2021/01/13 11:02:09;;;;;;;33.58;12.65;;;;;;;-4.76;48.11;99210.81;10459925;28;20451;-50
2021/01/13 11:07:14;;;;;;;24.98;11.38;;;;;;;-4.72;48.49;99206.44;10459676;28;20140;-49
2021/01/13 11:12:19;;;;;;;30.58;14.55;;;;;;;-4.79;48.17;99210.91;10458776;28;20049;-49
2021/01/13 11:17:23;;;;;;;20.55;6.93;;;;;;;-4.90;48.22;99205.25;10459952;28;20049;-50
2021/01/13 11:22:44;;;;;;;29.67;12.23;;;;;;;-5.06;48.16;99189.50;10459379;28;20477;-48
2021/01/13 11:27:53;;;;;;;31.70;12.48;;;;;;;-5.14;48.35;99184.63;10458380;28;20141;-50
2021/01/13 11:32:57;;;;;;;20.30;8.18;;;;;;;-5.14;48.69;99179.50;10458112;28;20478;-49
2021/01/13 11:38:31;;;;;;;29.60;10.98;;;;;;;-5.23;48.98;99174.66;10457710;28;20049;-49
2021/01/13 11:44:05;;;;;;;29.75;11.90;;;;;;;-5.32;49.45;99168.06;10440596;28;20489;-48
2021/01/13 11:49:20;;;;;;;33.92;11.05;;;;;;;-5.33;49.08;99165.53;10457442;28;20435;-49
2021/01/13 11:54:26;;;;;;;17.85;6.68;;;;;;;-5.32;49.06;99156.97;10459010;28;20053;-49
2021/01/13 11:59:29;;;;;;;10.43;4.40;;;;;;;-5.42;49.28;99168.34;10458382;28;20061;-50
2021/01/13 12:04:42;;;;;;;10.95;5.95;;;;;;;-5.57;49.65;99173.06;10459550;28;20110;-48
2021/01/13 12:09:44;;;;;;;19.47;8.37;;;;;;;-5.68;49.47;99154.59;10457496;28;20049;-49
2021/01/13 12:14:46;;;;;;;13.20;4.55;;;;;;;-5.90;50.07;99162.03;10461373;28;20420;-49
2021/01/13 12:19:49;;;;;;;11.23;5.15;;;;;;;-5.95;50.03;99183.53;10498949;28;20044;-48
2021/01/13 12:24:50;;;;;;;23.80;7.37;;;;;;;-6.12;49.99;99176.31;10498183;28;20506;-49
2021/01/13 12:30:09;;;;;;;17.25;7.05;;;;;;;-6.15;50.22;99172.09;10498868;28;20048;-50
2021/01/13 12:35:13;;;;;;;21.23;7.82;;;;;;;-6.13;49.72;99185.66;10498197;28;20048;-49
2021/01/13 12:40:15;;;;;;;8.73;4.45;;;;;;;-6.32;50.23;99199.81;10498510;28;20060;-50
2021/01/13 12:45:17;;;;;;;13.25;4.90;;;;;;;-6.50;50.39;99178.91;10498325;28;20059;-49
2021/01/13 12:50:20;;;;;;;22.27;7.90;;;;;;;-6.45;50.49;99170.31;10497960;28;20094;-48
2021/01/13 12:55:21;;;;;;;7.10;2.07;;;;;;;-6.45;50.48;99183.94;10498393;28;20052;-50
2021/01/13 13:00:25;;;;;;;12.90;5.38;;;;;;;-6.55;50.08;99182.50;10497878;28;20298;-48
2021/01/13 13:05:28;;;;;;;23.52;7.93;;;;;;;-6.65;50.06;99169.09;10505104;28;20067;-50
2021/01/13 13:10:29;;;;;;;10.37;3.97;;;;;;;-6.68;50.45;99176.84;10505539;28;20052;-50
2021/01/13 13:15:31;;;;;;;22.23;9.32;;;;;;;-6.87;50.85;99175.56;10505110;28;20056;-49
2021/01/13 13:20:34;;;;;;;26.58;10.20;;;;;;;-6.91;50.48;99166.28;10505087;28;20056;-48
2021/01/13 13:25:35;;;;;;;21.70;6.90;;;;;;;-7.09;50.94;99163.28;10504472;28;20052;-50
2021/01/13 13:30:40;;;;;;;10.23;5.00;;;;;;;-7.13;51.28;99159.13;10503763;28;20040;-49
2021/01/13 13:35:43;;;;;;;15.30;6.75;;;;;;;-7.13;50.91;99161.66;10504291;28;20048;-48
2021/01/13 13:40:44;;;;;;;14.17;5.77;;;;;;;-7.16;51.15;99184.72;10502801;28;20052;-50
2021/01/13 13:45:46;;;;;;;18.42;6.43;;;;;;;-7.18;51.23;99184.75;10503245;28;20067;-52
2021/01/13 13:50:52;;;;;;;14.05;5.93;;;;;;;-7.21;51.09;99183.97;10502918;28;20041;-50
2021/01/13 13:55:54;;;;;;;10.55;4.63;;;;;;;-7.22;51.18;99174.63;10504023;28;20056;-50
2021/01/13 14:00:57;;;;;;;17.45;6.50;;;;;;;-7.27;51.24;99167.06;10502897;28;20103;-50
2021/01/13 14:06:00;;;;;;;10.43;4.82;;;;;;;-7.25;51.13;99165.31;10502326;28;20040;-49
2021/01/13 14:11:01;;;;;;;12.90;4.88;;;;;;;-7.32;51.41;99165.50;10502294;28;20048;-48
2021/01/13 14:16:03;;;;;;;19.15;7.13;;;;;;;-7.32;51.21;99148.47;10501116;28;20114;-49
2021/01/13 14:21:06;;;;;;;17.88;3.92;;;;;;;-7.34;51.14;99160.41;10501775;28;20561;-49
2021/01/13 14:26:08;;;;;;;16.05;5.55;;;;;;;-7.49;51.56;99151.34;10502435;28;20056;-48
2021/01/13 14:31:09;;;;;;;11.10;3.13;;;;;;;-7.42;52.01;99152.94;10501439;28;20044;-48
2021/01/13 14:36:16;;;;;;;9.73;4.10;;;;;;;-7.37;52.24;99140.06;10501611;28;20045;-48
2021/01/13 14:41:17;;;;;;;21.23;8.18;;;;;;;-7.36;51.52;99125.56;10484758;28;20048;-49
2021/01/13 14:46:19;;;;;;;26.33;11.32;;;;;;;-7.32;51.42;99122.09;10501115;28;20055;-50
2021/01/13 14:51:25;;;;;;;20.92;9.00;;;;;;;-7.46;51.32;99105.34;10501167;28;20054;-49
2021/01/13 14:56:30;;;;;;;21.92;7.93;;;;;;;-7.53;51.70;99097.84;10500458;28;20130;-49
2021/01/13 15:01:32;;;;;;;19.02;6.05;;;;;;;-7.60;51.98;99102.25;10500583;28;20060;-48
2021/01/13 15:06:35;;;;;;;16.90;5.90;;;;;;;-7.65;52.12;99104.06;10500660;28;20045;-50
2021/01/13 15:11:36;;;;;;;14.55;6.50;;;;;;;-7.74;52.04;99097.44;10500326;28;20432;-50
2021/01/13 15:16:38;;;;;;;9.85;4.57;;;;;;;-7.76;52.20;99095.78;10501418;28;20052;-50
2021/01/13 15:21:41;;;;;;;18.10;7.55;;;;;;;-7.69;51.74;99102.47;10501930;28;20044;-48
2021/01/13 15:26:42;;;;;;;19.53;6.40;;;;;;;-7.70;51.80;99096.47;10500239;28;20048;-49
2021/01/13 15:31:44;;;;;;;10.38;3.67;;;;;;;-7.73;52.23;99086.34;10500565;28;20313;-48
2021/01/13 15:36:48;;;;;;;14.85;5.68;;;;;;;-7.87;52.16;99073.88;10498449;28;20048;-48
2021/01/13 15:41:49;;;;;;;22.00;7.47;;;;;;;-7.93;52.70;99068.91;10498975;28;20044;-50
2021/01/13 15:46:51;;;;;;;13.05;5.80;;;;;;;-7.96;52.37;99047.72;10498947;28;20131;-50
2021/01/13 15:51:54;;;;;;;15.98;5.32;;;;;;;-7.91;52.62;99043.38;10462787;28;20416;-48
2021/01/13 15:57:01;;;;;;;9.48;4.15;;;;;;;-7.87;52.12;99024.56;10452134;28;20044;-48
2021/01/13 16:02:07;;;;;;;10.48;4.65;;;;;;;-7.97;52.62;99051.16;10451041;28;20056;-50
2021/01/13 16:07:11;;;;;;;8.35;3.10;;;;;;;-8.04;52.39;99019.81;10470942;28;20067;-49
2021/01/13 16:12:17;;;;;;;19.95;8.25;;;;;;;-8.00;52.98;99011.25;10459154;28;20045;-50
2021/01/13 16:17:19;;;;;;;13.25;4.85;;;;;;;-7.97;52.88;98998.44;10456458;28;20389;-48
2021/01/13 16:22:26;;;;;;;16.17;7.03;;;;;;;-7.97;52.46;98995.03;10457225;28;20175;-49
2021/01/13 16:27:29;;;;;;;8.80;3.22;;;;;;;-8.03;52.74;98998.56;10497597;28;20052;-49
2021/01/13 16:32:39;;;;;;;9.05;4.53;;;;;;;-8.03;52.57;98992.63;10490727;28;20520;-48
2021/01/13 16:37:42;;;;;;;16.52;7.35;;;;;;;-8.02;52.48;98979.81;10435522;28;20080;-48
2021/01/13 16:42:44;;;;;;;10.27;5.28;;;;;;;-7.95;52.86;98994.13;10461902;28;20358;-48
2021/01/13 16:47:46;;;;;;;12.63;5.20;;;;;;;-7.92;52.53;98999.16;10450028;28;20053;-48
2021/01/13 16:52:49;;;;;;;13.50;4.78;;;;;;;-7.92;52.53;98985.56;10455784;28;20044;-51
2021/01/13 16:57:53;;;;;;;16.30;4.40;;;;;;;-7.98;52.59;98975.50;10476556;28;20052;-50
2021/01/13 17:02:57;;;;;;;12.23;4.43;;;;;;;-8.01;52.78;98971.28;10507886;28;20087;-50
2021/01/13 17:08:00;;;;;;;14.88;6.78;;;;;;;-7.99;53.06;98972.09;10503513;28;20048;-49
2021/01/13 17:13:03;;;;;;;11.73;4.90;;;;;;;-8.03;52.26;98972.22;10477442;28;20144;-49
2021/01/13 17:18:07;;;;;;;12.48;4.82;;;;;;;-8.05;52.37;98969.69;10462608;28;20068;-50
2021/01/13 17:23:10;;;;;;;7.95;3.50;;;;;;;-8.04;52.70;98950.13;10461156;28;20055;-50
2021/01/13 17:28:13;;;;;;;11.00;6.72;;;;;;;-8.03;52.40;98954.38;10460802;28;20076;-49
2021/01/13 17:33:15;;;;;;;11.88;5.00;;;;;;;-8.00;52.38;98931.34;10456836;28;20370;-48
2021/01/13 17:38:21;;;;;;;14.18;5.30;;;;;;;-7.92;52.73;98954.94;10460214;28;20496;-49
2021/01/13 17:43:23;;;;;;;12.35;4.72;;;;;;;-8.13;52.59;98923.09;10461573;28;20044;-49
2021/01/13 17:48:25;;;;;;;17.63;7.00;;;;;;;-8.19;52.12;98949.59;10460803;28;20049;-49
2021/01/13 17:53:28;;;;;;;6.35;2.97;;;;;;;-8.18;52.07;98914.72;10459978;28;20053;-47
2021/01/13 17:58:31;;;;;;;9.95;4.45;;;;;;;-8.17;52.49;98942.72;10480267;28;20049;-48
2021/01/13 18:03:32;;;;;;;8.55;3.92;;;;;;;-8.25;52.46;98918.28;10498370;28;20436;-48
2021/01/13 18:08:36;;;;;;;12.15;6.65;;;;;;;-8.30;51.73;98905.63;10458187;28;20135;-50
2021/01/13 18:13:37;;;;;;;10.38;4.85;;;;;;;-8.37;52.26;98894.75;10460125;28;20160;-50
2021/01/13 18:18:39;;;;;;;8.80;3.47;;;;;;;-8.44;52.38;98872.81;10458589;28;20091;-50
2021/01/13 18:23:42;;;;;;;19.75;7.15;;;;;;;-8.36;52.49;98859.88;10457834;28;20069;-49
2021/01/13 18:28:44;;;;;;;10.07;5.15;;;;;;;-8.16;52.12;98842.44;10458984;28;20540;-49
2021/01/13 18:33:45;;;;;;;8.57;2.97;;;;;;;-8.18;52.04;98873.94;10459662;28;20481;-52
2021/01/13 18:38:48;;;;;;;16.95;5.65;;;;;;;-8.06;51.92;98822.66;10458222;28;20394;-50
2021/01/13 18:43:50;;;;;;;11.52;4.70;;;;;;;-8.03;51.29;98804.72;10458724;28;20045;-50
2021/01/13 18:48:51;;;;;;;7.20;3.25;;;;;;;-8.00;51.25;98780.84;10462907;28;20055;-50
2021/01/13 18:53:54;;;;;;;7.10;3.30;;;;;;;-8.00;51.00;98783.41;10457152;28;20052;-50
2021/01/13 18:58:56;;;;;;;10.17;3.37;;;;;;;-8.08;51.10;98768.28;10480415;28;20385;-48
2021/01/13 19:03:59;;;;;;;8.85;4.28;;;;;;;-8.34;50.44;98782.50;10493073;28;20291;-48
2021/01/13 19:09:03;;;;;;;7.10;2.63;;;;;;;-8.44;51.27;98742.81;10458113;28;20083;-48
2021/01/13 19:14:05;;;;;;;9.80;3.78;;;;;;;-8.47;50.92;98760.75;10457927;28;20390;-50
2021/01/13 19:19:07;;;;;;;12.23;4.95;;;;;;;-8.54;51.21;98760.94;10457563;28;20106;-49
2021/01/13 19:24:10;;;;;;;8.02;3.22;;;;;;;-8.62;50.89;98738.16;10456412;28;20045;-49
2021/01/13 19:29:12;;;;;;;19.58;6.68;;;;;;;-8.62;51.23;98753.44;10455748;28;20072;-50
2021/01/13 19:34:14;;;;;;;11.75;5.88;;;;;;;-8.69;51.54;98757.00;10455412;28;20085;-48
2021/01/13 19:39:17;;;;;;;11.27;6.35;;;;;;;-8.73;52.17;98710.41;10456489;28;20045;-50
2021/01/13 19:44:18;;;;;;;8.68;2.85;;;;;;;-8.76;52.55;98697.72;10456913;28;20044;-49
2021/01/13 19:49:21;;;;;;;10.82;4.35;;;;;;;-8.64;52.43;98682.16;10455453;28;20082;-49
2021/01/13 19:54:23;;;;;;;34.63;4.78;;;;;;;-8.72;52.83;98693.41;10412834;28;20041;-51
2021/01/13 19:59:25;;;;;;;4.13;2.33;;;;;;;-8.77;53.28;98677.38;10467781;28;20044;-50
2021/01/13 20:04:27;;;;;;;10.13;4.95;;;;;;;-8.88;53.46;98708.19;10467044;28;20102;-49
2021/01/13 20:09:29;;;;;;;8.55;3.72;;;;;;;-8.96;54.61;98675.25;10454690;28;20053;-49
2021/01/13 20:14:31;;;;;;;9.15;5.00;;;;;;;-8.96;55.08;98675.25;10465544;28;20048;-50
2021/01/13 20:19:33;;;;;;;6.20;2.92;;;;;;;-8.92;55.38;98648.88;10465557;28;20049;-48
2021/01/13 20:24:35;;;;;;;8.98;4.47;;;;;;;-8.89;55.07;98641.16;10472339;28;20103;-49
2021/01/13 20:29:37;;;;;;;5.90;2.85;;;;;;;-8.93;55.63;98628.50;10463063;28;20136;-50
2021/01/13 20:34:39;;;;;;;17.95;9.07;;;;;;;-8.93;55.97;98620.88;10466329;28;20052;-49
2021/01/13 20:39:42;;;;;;;10.57;4.45;;;;;;;-8.91;56.23;98602.13;10464611;28;20580;-51
2021/01/13 20:44:43;;;;;;;11.63;4.38;;;;;;;-8.81;56.27;98579.81;10464796;28;20505;-48
2021/01/13 20:49:46;;;;;;;15.25;5.57;;;;;;;-8.73;56.31;98555.00;10464330;28;20063;-49
2021/01/13 20:54:49;;;;;;;9.15;4.72;;;;;;;-8.58;55.95;98562.25;10464796;28;20052;-51
2021/01/13 20:59:52;;;;;;;6.38;2.40;;;;;;;-8.58;55.72;98561.41;10464199;28;20053;-49
2021/01/13 21:04:53;;;;;;;;;;;;;;;-8.59;56.06;98508.75;10463650;28;20041;-49
2021/01/13 21:09:56;;;;;;;7.82;3.45;;;;;;;-8.59;56.16;98490.94;10463377;28;20419;-50
2021/01/13 21:14:57;;;;;;;18.60;5.10;;;;;;;-8.51;56.63;98494.13;10463772;28;20462;-49
2021/01/13 21:19:59;;;;;;;8.52;4.90;;;;;;;-8.56;56.57;98480.66;10463447;28;20654;-50
2021/01/13 21:25:02;;;;;;;12.52;2.97;;;;;;;-8.53;56.63;98459.34;10462775;28;20110;-49
2021/01/13 21:30:05;;;;;;;7.78;4.28;;;;;;;-8.50;57.50;98472.84;10463252;28;20059;-48
2021/01/13 21:35:08;;;;;;;11.05;4.32;;;;;;;-8.49;57.09;98425.28;10461609;28;20217;-50
2021/01/13 21:40:12;;;;;;;11.45;4.38;;;;;;;-8.41;57.15;98420.78;10461454;28;20072;-48
2021/01/13 21:45:14;;;;;;;12.88;4.70;;;;;;;-8.41;57.83;98402.94;10462679;28;20049;-49
2021/01/13 21:50:16;;;;;;;13.27;4.43;;;;;;;-8.36;57.40;98399.34;10462082;28;20057;-48
2021/01/13 21:55:18;;;;;;;5.82;2.53;;;;;;;-8.40;57.47;98402.06;10461374;28;20065;-50
2021/01/13 22:00:20;;;;;;;8.00;3.83;;;;;;;-8.35;57.98;98411.19;10461914;28;20060;-48
2021/01/13 22:05:22;;;;;;;13.52;6.38;;;;;;;-8.36;57.85;98432.47;10461144;28;20452;-50
2021/01/13 22:10:28;;;;;;;9.10;3.13;;;;;;;-8.43;57.81;98407.25;10461212;28;20060;-50
2021/01/13 22:15:30;;;;;;;7.63;3.38;;;;;;;-8.49;57.82;98410.81;10461475;28;20089;-49
2021/01/13 22:20:31;;;;;;;8.95;3.53;;;;;;;-8.52;58.17;98380.31;10460356;28;20048;-48
2021/01/13 22:25:34;;;;;;;7.95;3.83;;;;;;;-8.45;58.17;98351.22;10464029;28;20374;-49
2021/01/13 22:30:36;;;;;;;5.93;2.45;;;;;;;-8.46;59.83;98339.38;10462752;28;20482;-48
2021/01/13 22:35:37;;;;;;;8.35;4.47;;;;;;;-8.49;59.19;98354.75;10459321;28;20143;-49
2021/01/13 22:40:40;;;;;;;12.10;4.00;;;;;;;-8.48;59.25;98351.31;10459945;28;20048;-50
2021/01/13 22:45:42;;;;;;;19.55;5.97;;;;;;;-8.54;59.55;98376.97;10460494;28;20045;-48
2021/01/13 22:50:44;;;;;;;10.73;4.97;;;;;;;-8.60;59.86;98321.94;10459063;28;20055;-50
2021/01/13 22:55:52;;;;;;;7.78;4.32;;;;;;;-8.58;59.69;98372.88;10459245;28;20391;-52
2021/01/13 23:00:53;;;;;;;10.27;5.28;;;;;;;-8.60;59.61;98372.06;10459278;28;20095;-48
2021/01/13 23:05:55;;;;;;;7.07;3.25;;;;;;;-8.65;59.30;98344.19;10458843;28;20045;-49
2021/01/13 23:10:58;;;;;;;11.02;4.80;;;;;;;-8.74;59.26;98328.31;10458602;28;20056;-50
2021/01/13 23:16:00;;;;;;;15.07;5.25;;;;;;;-8.81;59.47;98312.38;10458554;28;20539;-48
2021/01/13 23:21:02;;;;;;;13.20;5.88;;;;;;;-8.77;59.51;98320.75;10459044;28;20045;-50
2021/01/13 23:26:05;;;;;;;11.32;6.40;;;;;;;-8.70;59.26;98284.06;10458547;28;20059;-48
2021/01/13 23:31:06;;;;;;;;;;;;;;;-8.79;59.36;98284.34;10458180;28;20048;-49